Butte, North Dakota
Current Conditions -  °F | °C
As of 8:15 AM on Friday 19 Dec 2014 (Local Time) from K5H4 Reporting Station
Haze Haze  
Wind Chill: 15°   Ceiling: 200
Heat Index: 25°   Visibility: 4mi
Dew Point: 25°   Wind: 9mph
Humidity: 100%   Direction: 200°SSW
Pressure: 29.95"   Gusts: NA
Location:  47.84°N, 100.67°W
Report Text: K5H4 191415Z AUTO 20008KT 4SM BR OVC002 M04/M04 A2995 RMK AO2
Loading
Personal Weather Stations






























Interactive Weather Map New forecast layout! Learn more

10-Day Weather Forecast

Advertisements
Track Severe Weather on mobile